Time;durP1;ratioP1;P1;durP2;ratioP2;P2;SDS_P1;SDS_P2;PMS_P1;PMS_P2;Temp;Humidity;BMP_temperature;BMP_pressure;BME280_temperature;BME280_humidity;BME280_pressure;Samples;Min_cycle;Max_cycle;Signal;HPM_P1;HPM_P2
2022/12/20 00:01:25;;;;;;;36.25;18.83;;;1.90;99.90;;;;;;4989099;28;20040;-76
2022/12/20 00:03:52;;;;;;;34.40;20.33;;;1.90;99.90;;;;;;4990992;28;20558;-76
2022/12/20 00:06:19;;;;;;;37.40;18.50;;;1.90;99.90;;;;;;4992966;28;20457;-76
2022/12/20 00:09:00;;;;;;;30.23;17.77;;;1.90;99.90;;;;;;4992494;28;20040;-75
2022/12/20 00:11:26;;;;;;;31.48;17.95;;;1.90;99.90;;;;;;4989536;28;20110;-75
2022/12/20 00:13:53;;;;;;;35.40;18.05;;;1.80;99.90;;;;;;4987402;28;20066;-76
2022/12/20 00:16:21;;;;;;;33.65;19.17;;;1.80;99.90;;;;;;4989323;28;20037;-75
2022/12/20 00:18:51;;;;;;;37.63;20.13;;;1.80;99.90;;;;;;4984722;28;20035;-75
2022/12/20 00:21:16;;;;;;;39.63;20.13;;;1.80;99.90;;;;;;4987285;28;20038;-76
2022/12/20 00:23:42;;;;;;;34.90;18.98;;;1.80;99.90;;;;;;4989326;28;20034;-75
2022/12/20 00:26:16;;;;;;;37.13;18.80;;;1.80;99.90;;;;;;4989734;28;20026;-74
2022/12/20 00:28:45;;;;;;;36.28;19.25;;;1.80;99.90;;;;;;4986135;28;20055;-75
2022/12/20 00:31:19;;;;;;;33.45;17.45;;;1.80;99.90;;;;;;4987198;28;20018;-74
2022/12/20 00:33:50;;;;;;;32.55;17.15;;;1.80;99.90;;;;;;4990001;28;20541;-75
2022/12/20 00:36:17;;;;;;;31.25;17.55;;;1.70;99.90;;;;;;4985914;28;20475;-75
2022/12/20 00:38:48;;;;;;;32.95;18.40;;;1.70;99.90;;;;;;4991129;28;20489;-75
2022/12/20 00:41:23;;;;;;;35.97;19.05;;;1.70;99.90;;;;;;4993077;28;20134;-75
2022/12/20 00:43:55;;;;;;;34.47;18.85;;;1.70;99.90;;;;;;4990167;28;20493;-75
2022/12/20 00:46:22;;;;;;;40.65;20.95;;;1.70;99.90;;;;;;4985070;28;20116;-75
2022/12/20 00:48:48;;;;;;;35.55;18.60;;;1.70;99.90;;;;;;4986588;28;20486;-74
2022/12/20 00:51:27;;;;;;;38.47;20.42;;;1.80;99.90;;;;;;4988133;28;20042;-75
2022/12/20 00:53:53;;;;;;;35.28;19.05;;;1.70;99.90;;;;;;4990567;28;20038;-75
2022/12/20 00:56:20;;;;;;;34.38;18.40;;;1.80;99.90;;;;;;4989518;28;20023;-76
2022/12/20 00:58:46;;;;;;;37.30;19.30;;;1.80;99.90;;;;;;4988969;28;20493;-75
2022/12/20 01:01:33;;;;;;;38.40;18.70;;;1.80;99.90;;;;;;4988880;28;20129;-76
2022/12/20 01:04:04;;;;;;;32.90;18.08;;;1.80;99.90;;;;;;4992952;28;20050;-76
2022/12/20 01:06:30;;;;;;;31.58;17.42;;;1.80;99.90;;;;;;4986130;28;20209;-76
2022/12/20 01:08:57;;;;;;;29.80;16.45;;;1.80;99.90;;;;;;4989657;28;20538;-75
2022/12/20 01:11:34;;;;;;;23.90;13.80;;;1.80;99.90;;;;;;4989241;28;20395;-75
2022/12/20 01:14:03;;;;;;;23.17;13.65;;;1.90;99.90;;;;;;4987671;28;20499;-75
2022/12/20 01:16:35;;;;;;;20.42;11.00;;;2.00;99.90;;;;;;4990792;28;20033;-75
2022/12/20 01:19:01;;;;;;;23.17;11.50;;;2.00;99.90;;;;;;4985661;28;20529;-75
2022/12/20 01:21:28;;;;;;;25.58;14.43;;;2.10;99.90;;;;;;4989912;28;20014;-75
2022/12/20 01:23:54;;;;;;;25.85;12.30;;;2.20;99.90;;;;;;4992630;28;20026;-75
2022/12/20 01:26:23;;;;;;;21.95;12.15;;;2.20;99.90;;;;;;4988418;28;20030;-76
2022/12/20 01:28:58;;;;;;;24.50;12.80;;;2.20;99.90;;;;;;4987012;28;20112;-75
2022/12/20 01:31:28;;;;;;;22.77;12.68;;;2.20;99.90;;;;;;4996517;28;20045;-76
2022/12/20 01:33:54;;;;;;;24.58;13.82;;;2.20;99.90;;;;;;4989988;28;20035;-76
2022/12/20 01:36:32;;;;;;;25.00;12.65;;;2.20;99.90;;;;;;4988589;28;20081;-76
2022/12/20 01:39:10;;;;;;;23.42;12.55;;;2.20;99.90;;;;;;4993891;28;20098;-75
2022/12/20 01:41:44;;;;;;;24.02;12.48;;;2.20;99.90;;;;;;4986877;28;20157;-76
2022/12/20 01:44:15;;;;;;;25.48;13.50;;;2.20;99.90;;;;;;4988053;28;20376;-75
2022/12/20 01:46:42;;;;;;;24.30;13.20;;;2.10;99.90;;;;;;4989020;28;20175;-76
2022/12/20 01:49:20;;;;;;;22.65;12.10;;;2.20;99.90;;;;;;4984271;28;20046;-73
2022/12/20 01:52:04;;;;;;;23.48;12.93;;;2.10;99.90;;;;;;4991527;28;20057;-75
2022/12/20 01:54:35;;;;;;;19.67;10.63;;;2.10;99.90;;;;;;4992980;28;20033;-75
2022/12/20 01:57:12;;;;;;;19.70;8.70;;;2.10;99.90;;;;;;4990979;28;20113;-75
2022/12/20 01:59:40;;;;;;;15.70;8.00;;;2.20;99.90;;;;;;4990567;28;20401;-76
2022/12/20 02:02:11;;;;;;;16.55;8.82;;;2.30;99.90;;;;;;4987995;28;20030;-75
2022/12/20 02:04:37;;;;;;;13.45;6.78;;;2.30;99.90;;;;;;4983783;28;20392;-73
2022/12/20 02:07:07;;;;;;;13.05;7.28;;;2.40;99.90;;;;;;4990139;28;20129;-75
2022/12/20 02:09:39;;;;;;;16.35;8.05;;;2.50;99.90;;;;;;4993865;28;20065;-73
2022/12/20 02:12:21;;;;;;;12.98;7.18;;;2.60;99.90;;;;;;4987561;28;20030;-75
2022/12/20 02:15:14;;;;;;;13.10;6.68;;;2.70;99.90;;;;;;4989383;28;20102;-75
2022/12/20 02:18:01;;;;;;;10.88;5.85;;;2.80;99.90;;;;;;4988922;28;20026;-75
2022/12/20 02:20:42;;;;;;;10.18;5.80;;;2.80;99.90;;;;;;4990561;28;20106;-76
2022/12/20 02:23:52;;;;;;;8.63;5.50;;;3.00;99.90;;;;;;4985493;28;20027;-73
2022/12/20 02:26:42;;;;;;;9.82;4.55;;;3.20;99.90;;;;;;4981440;28;20457;-75
2022/12/20 02:29:36;;;;;;;9.82;4.82;;;3.30;99.90;;;;;;4988006;28;20468;-74
2022/12/20 02:32:13;;;;;;;8.68;4.28;;;3.50;99.90;;;;;;4989514;28;20023;-74
2022/12/20 02:34:42;;;;;;;9.27;4.88;;;3.70;99.90;;;;;;5004200;28;20415;-74
2022/12/20 02:37:09;;;;;;;8.40;4.95;;;3.80;99.90;;;;;;4988554;28;20049;-74
2022/12/20 02:39:38;;;;;;;6.60;4.07;;;3.80;99.90;;;;;;4988194;28;20034;-73
2022/12/20 02:42:06;;;;;;;7.50;3.70;;;3.90;99.90;;;;;;4988314;28;20490;-74
2022/12/20 02:45:14;;;;;;;8.77;4.43;;;4.00;99.90;;;;;;4985068;28;20097;-74
2022/12/20 02:48:00;;;;;;;9.20;4.30;;;4.00;99.90;;;;;;4992903;28;20117;-75
2022/12/20 02:50:55;;;;;;;6.20;3.85;;;4.00;99.90;;;;;;4985447;28;20093;-74
2022/12/20 02:53:21;;;;;;;8.10;4.28;;;4.00;99.90;;;;;;4985578;28;20515;-75
2022/12/20 02:56:12;;;;;;;10.75;6.05;;;4.00;99.90;;;;;;4989355;28;20038;-75
2022/12/20 02:58:43;;;;;;;14.98;8.18;;;3.90;99.90;;;;;;4978672;28;20403;-74
2022/12/20 03:01:36;;;;;;;13.10;7.40;;;3.80;99.90;;;;;;4989529;28;20475;-75
2022/12/20 03:04:03;;;;;;;22.63;11.02;;;3.70;99.90;;;;;;4982446;28;20403;-74
2022/12/20 03:06:32;;;;;;;18.48;11.68;;;3.60;99.90;;;;;;4988858;28;20380;-75
2022/12/20 03:08:58;;;;;;;20.83;11.90;;;3.50;99.90;;;;;;4988159;28;20038;-74
2022/12/20 03:11:24;;;;;;;22.90;13.15;;;3.40;99.90;;;;;;4987567;28;20400;-76
2022/12/20 03:13:50;;;;;;;24.33;12.98;;;3.30;99.90;;;;;;4984372;28;20037;-75
2022/12/20 03:16:16;;;;;;;25.83;13.13;;;3.20;99.90;;;;;;4983474;28;20050;-75
2022/12/20 03:18:41;;;;;;;23.67;13.18;;;3.10;99.90;;;;;;4986188;28;20039;-75
2022/12/20 03:21:07;;;;;;;23.45;13.77;;;3.10;99.90;;;;;;4982536;28;20508;-74
2022/12/20 03:23:33;;;;;;;27.50;14.65;;;3.00;99.90;;;;;;4984799;28;20028;-74
2022/12/20 03:26:10;;;;;;;25.83;14.77;;;2.90;99.90;;;;;;4989339;28;20471;-75
2022/12/20 03:28:36;;;;;;;23.10;13.70;;;2.90;99.90;;;;;;4987840;28;20514;-76
2022/12/20 03:31:10;;;;;;;21.23;12.30;;;2.80;99.90;;;;;;4989629;28;20022;-75
2022/12/20 03:33:39;;;;;;;18.77;11.70;;;2.80;99.90;;;;;;4990745;28;20042;-75
2022/12/20 03:36:04;;;;;;;22.45;12.55;;;2.70;99.90;;;;;;4990026;28;20446;-76
2022/12/20 03:38:30;;;;;;;20.65;11.93;;;2.70;99.90;;;;;;4989598;28;20066;-76
2022/12/20 03:41:01;;;;;;;22.10;12.20;;;2.60;99.90;;;;;;4990361;28;20034;-75
2022/12/20 03:43:30;;;;;;;20.70;12.50;;;2.60;99.90;;;;;;4988554;28;20102;-76
2022/12/20 03:45:59;;;;;;;21.67;13.57;;;2.60;99.90;;;;;;4982696;28;20058;-76
2022/12/20 03:48:34;;;;;;;26.05;15.25;;;2.60;99.90;;;;;;4988559;28;20026;-75
2022/12/20 03:50:59;;;;;;;27.58;15.75;;;2.50;99.90;;;;;;4992467;28;20030;-76
2022/12/20 03:53:27;;;;;;;24.92;14.57;;;2.50;99.90;;;;;;4990962;28;20459;-76
2022/12/20 03:55:56;;;;;;;25.35;14.98;;;2.50;99.90;;;;;;4988952;28;20034;-76
2022/12/20 03:58:25;;;;;;;28.40;15.77;;;2.40;99.90;;;;;;4985934;28;20018;-76
2022/12/20 04:00:50;;;;;;;25.70;15.00;;;2.40;99.90;;;;;;4987859;28;20383;-75
2022/12/20 04:03:19;;;;;;;29.85;15.40;;;2.40;99.90;;;;;;4983139;28;20098;-74
2022/12/20 04:05:45;;;;;;;27.02;15.38;;;2.40;99.90;;;;;;4985868;28;20507;-75
2022/12/20 04:08:13;;;;;;;23.77;13.48;;;2.40;99.90;;;;;;4986155;28;20117;-75
2022/12/20 04:13:26;;;;;;;27.17;13.75;;;2.30;99.90;;;;;;4987278;28;20115;-74
2022/12/20 04:15:55;;;;;;;19.13;11.70;;;2.40;99.90;;;;;;4992330;28;20034;-76
2022/12/20 04:18:20;;;;;;;24.17;12.15;;;2.40;99.90;;;;;;4990258;28;20494;-76
2022/12/20 04:20:53;;;;;;;21.40;12.63;;;2.40;99.90;;;;;;4995347;28;20018;-76
2022/12/20 04:23:18;;;;;;;21.00;11.68;;;2.40;99.90;;;;;;4990800;28;20018;-76
2022/12/20 04:25:44;;;;;;;21.77;11.48;;;2.40;99.90;;;;;;5003596;23;20492;-76
2022/12/20 04:28:16;;;;;;;20.58;11.32;;;2.50;99.90;;;;;;5010880;28;20037;-80
2022/12/20 04:30:50;;;;;;;19.42;10.93;;;2.50;99.90;;;;;;5019100;28;20029;-80
2022/12/20 04:33:19;;;;;;;19.63;9.23;;;2.40;99.90;;;;;;5016280;28;20129;-79
2022/12/20 04:35:44;;;;;;;16.58;9.52;;;2.50;99.90;;;;;;5013756;28;20026;-80
2022/12/20 04:38:13;;;;;;;15.35;9.70;;;2.50;99.90;;;;;;5019182;28;20026;-80
2022/12/20 04:40:42;;;;;;;16.92;9.57;;;2.50;99.90;;;;;;5018676;28;20030;-80
2022/12/20 04:43:08;;;;;;;21.23;11.30;;;2.60;99.90;;;;;;5019417;28;20022;-80
2022/12/20 04:45:37;;;;;;;17.35;9.95;;;2.60;99.90;;;;;;5018270;28;20037;-80
2022/12/20 04:48:09;;;;;;;18.75;9.80;;;2.60;99.90;;;;;;5017584;28;20097;-79
2022/12/20 04:50:37;;;;;;;15.13;9.82;;;2.60;99.90;;;;;;5017363;28;20030;-79
2022/12/20 04:55:47;;;;;;;;;;;2.60;99.90;;;;;;5016886;28;20513;-78
2022/12/20 04:58:13;;;;;;;18.33;10.70;;;2.60;99.90;;;;;;5017583;28;19914;-78
2022/12/20 05:00:44;;;;;;;23.10;10.80;;;2.60;99.90;;;;;;5016936;28;20398;-78
2022/12/20 05:03:17;;;;;;;17.58;9.93;;;2.60;99.90;;;;;;5014717;28;20085;-79
2022/12/20 05:05:49;;;;;;;19.75;11.05;;;2.60;99.90;;;;;;5018444;28;20104;-78
2022/12/20 05:08:15;;;;;;;19.33;10.77;;;2.50;99.90;;;;;;5014713;28;20056;-78
2022/12/20 05:10:47;;;;;;;18.42;9.88;;;2.50;99.90;;;;;;5013846;28;20492;-79
2022/12/20 05:13:13;;;;;;;18.67;10.70;;;2.50;99.90;;;;;;5012348;28;20037;-79
2022/12/20 05:15:39;;;;;;;16.48;10.05;;;2.50;99.90;;;;;;5013024;28;20038;-79
2022/12/20 05:18:05;;;;;;;18.00;10.30;;;2.50;99.90;;;;;;5014933;28;20087;-79
2022/12/20 05:20:31;;;;;;;19.00;10.23;;;2.50;99.90;;;;;;5014352;28;20356;-78
2022/12/20 05:28:28;;;;;;;16.95;9.60;;;2.50;99.90;;;;;;5014987;28;20041;-77
2022/12/20 05:30:57;;;;;;;20.58;10.43;;;2.50;99.90;;;;;;5018522;28;20510;-77
2022/12/20 05:33:23;;;;;;;18.70;10.05;;;2.60;99.90;;;;;;5014186;28;20030;-78
2022/12/20 05:35:49;;;;;;;17.10;9.38;;;2.60;99.90;;;;;;5018302;28;20026;-78
2022/12/20 05:38:14;;;;;;;17.58;9.32;;;2.70;99.90;;;;;;5016026;28;20030;-77
2022/12/20 05:40:40;;;;;;;18.88;10.13;;;2.70;99.90;;;;;;5017879;28;20033;-78
2022/12/20 05:43:15;;;;;;;18.38;10.10;;;2.70;99.90;;;;;;5019714;28;20022;-78
2022/12/20 05:45:49;;;;;;;18.83;10.50;;;2.90;99.90;;;;;;5016582;28;20368;-77
2022/12/20 05:48:15;;;;;;;;;;;3.00;99.90;;;;;;5016052;28;20101;-78
2022/12/20 05:50:44;;;;;;;18.95;9.50;;;3.00;99.90;;;;;;5011728;28;19955;-78
2022/12/20 05:53:12;;;;;;;19.23;9.95;;;3.20;99.90;;;;;;5012897;28;20065;-78
2022/12/20 05:55:39;;;;;;;20.95;9.55;;;3.40;99.90;;;;;;5021069;28;20018;-78
2022/12/20 05:58:05;;;;;;;17.00;8.35;;;3.50;99.90;;;;;;5020617;28;20596;-78
2022/12/20 06:00:31;;;;;;;19.08;9.32;;;3.50;99.90;;;;;;5017965;28;20069;-78
2022/12/20 06:02:57;;;;;;;15.68;8.40;;;3.50;99.90;;;;;;5020350;28;20030;-78
2022/12/20 06:05:25;;;;;;;16.15;8.80;;;3.40;99.90;;;;;;5018032;28;20029;-78
2022/12/20 06:08:00;;;;;;;16.17;9.75;;;3.40;99.90;;;;;;5018047;28;20022;-78
2022/12/20 06:10:26;;;;;;;16.38;9.20;;;3.30;99.90;;;;;;5014363;28;20108;-80
2022/12/20 06:12:51;;;;;;;14.90;8.88;;;3.20;99.90;;;;;;5016302;28;20418;-79
2022/12/20 06:15:17;;;;;;;15.13;9.23;;;3.10;99.90;;;;;;5014449;28;20483;-80
2022/12/20 06:17:46;;;;;;;17.77;9.50;;;3.10;99.90;;;;;;5013922;28;20033;-80
2022/12/20 06:20:15;;;;;;;19.75;10.77;;;3.00;99.90;;;;;;5010849;28;20092;-79
2022/12/20 06:22:44;;;;;;;19.30;9.68;;;3.00;99.90;;;;;;5012473;28;20022;-79
2022/12/20 06:25:14;;;;;;;18.55;9.60;;;2.90;99.90;;;;;;5010813;28;20118;-79
2022/12/20 06:27:40;;;;;;;20.65;11.45;;;2.90;99.90;;;;;;5015241;28;20049;-78
2022/12/20 06:30:10;;;;;;;15.05;9.48;;;2.80;99.90;;;;;;5013661;28;20041;-79
2022/12/20 06:32:35;;;;;;;17.67;9.93;;;2.80;99.90;;;;;;5010449;28;20026;-79
2022/12/20 06:35:01;;;;;;;17.02;10.02;;;2.70;99.90;;;;;;5016073;28;20033;-79
2022/12/20 06:37:39;;;;;;;17.38;10.57;;;2.80;99.90;;;;;;5013342;28;20033;-79
2022/12/20 06:40:12;;;;;;;18.20;9.32;;;2.70;99.90;;;;;;5015089;28;20040;-79
2022/12/20 06:42:41;;;;;;;19.42;9.45;;;2.60;99.90;;;;;;5013422;28;20470;-78
2022/12/20 06:45:07;;;;;;;15.23;9.35;;;2.70;99.90;;;;;;5010829;28;20030;-80
2022/12/20 06:47:33;;;;;;;15.65;9.25;;;2.60;99.90;;;;;;5007047;28;20022;-80
2022/12/20 06:49:59;;;;;;;16.27;9.60;;;2.60;99.90;;;;;;5014659;28;20482;-79
2022/12/20 06:52:24;;;;;;;20.33;11.82;;;2.60;99.90;;;;;;5015278;28;20038;-78
2022/12/20 06:54:50;;;;;;;25.88;16.50;;;2.60;99.90;;;;;;5019956;28;20052;-79
2022/12/20 06:57:15;;;;;;;22.13;12.98;;;2.50;99.90;;;;;;5013746;28;20046;-79
2022/12/20 06:59:42;;;;;;;16.40;10.98;;;2.60;99.90;;;;;;5011973;28;20026;-78
2022/12/20 07:02:13;;;;;;;17.58;10.30;;;2.50;99.90;;;;;;5021310;28;20428;-77
2022/12/20 07:04:39;;;;;;;15.85;9.73;;;2.50;99.90;;;;;;5012829;28;20065;-71
2022/12/20 07:07:05;;;;;;;15.35;8.90;;;2.60;99.90;;;;;;5013129;28;20045;-70
2022/12/20 07:09:31;;;;;;;19.02;10.02;;;2.60;99.90;;;;;;4996226;28;20371;-69
2022/12/20 07:11:57;;;;;;;18.23;11.57;;;2.70;99.90;;;;;;5012947;28;20033;-69
2022/12/20 07:14:22;;;;;;;17.70;10.68;;;2.70;99.90;;;;;;5014742;28;20034;-69
2022/12/20 07:16:49;;;;;;;19.27;10.00;;;2.80;99.90;;;;;;5014066;28;20022;-69
2022/12/20 07:19:15;;;;;;;16.77;10.68;;;2.80;99.90;;;;;;5014496;28;20041;-70
2022/12/20 07:21:41;;;;;;;16.17;10.02;;;2.70;99.90;;;;;;5018295;28;20022;-77
2022/12/20 07:24:07;;;;;;;17.75;9.73;;;2.70;99.90;;;;;;5010693;28;20164;-77
2022/12/20 07:26:33;;;;;;;19.40;10.45;;;2.80;99.90;;;;;;5014913;28;20034;-77
2022/12/20 07:28:59;;;;;;;16.77;10.02;;;2.70;99.90;;;;;;5015760;28;20029;-77
2022/12/20 07:31:24;;;;;;;17.40;9.57;;;2.70;99.90;;;;;;5017271;28;20058;-77
2022/12/20 07:33:50;;;;;;;18.63;9.98;;;2.70;99.90;;;;;;5004002;28;20273;-78
2022/12/20 07:36:15;;;;;;;17.00;8.50;;;2.70;99.90;;;;;;4999211;28;20018;-78
2022/12/20 07:38:41;;;;;;;12.88;7.90;;;2.70;99.90;;;;;;5001371;28;20483;-79
2022/12/20 07:41:13;;;;;;;15.82;8.57;;;2.70;99.90;;;;;;5017967;28;20392;-78
2022/12/20 07:43:39;;;;;;;15.75;8.75;;;2.60;99.90;;;;;;5026071;28;20029;-78
2022/12/20 07:46:05;;;;;;;16.45;9.68;;;2.60;99.90;;;;;;5024696;28;20386;-78
2022/12/20 07:48:31;;;;;;;19.63;10.52;;;2.70;99.90;;;;;;5026233;28;20084;-78
2022/12/20 07:51:06;;;;;;;21.15;11.35;;;2.70;99.90;;;;;;5023591;28;20038;-78
2022/12/20 07:53:50;;;;;;;21.30;10.95;;;2.70;99.90;;;;;;5023479;28;20026;-76
2022/12/20 07:56:17;;;;;;;18.13;10.52;;;2.70;99.90;;;;;;5009054;28;20045;-79
2022/12/20 07:58:44;;;;;;;17.52;9.60;;;2.70;99.90;;;;;;5024446;28;20364;-76
2022/12/20 08:01:20;;;;;;;16.27;9.32;;;2.70;99.90;;;;;;5022008;28;20022;-77
2022/12/20 08:03:51;;;;;;;19.27;10.32;;;2.70;99.90;;;;;;5023438;28;20032;-76
2022/12/20 08:06:18;;;;;;;17.27;8.80;;;2.70;99.90;;;;;;5020382;28;20022;-77
2022/12/20 08:08:49;;;;;;;15.13;9.35;;;2.70;99.90;;;;;;5023652;28;20046;-77
2022/12/20 08:11:17;;;;;;;16.65;10.60;;;2.80;99.90;;;;;;5022743;28;20041;-77
2022/12/20 08:13:50;;;;;;;18.95;11.05;;;2.70;99.90;;;;;;5021005;28;20022;-77
2022/12/20 08:16:22;;;;;;;21.05;11.43;;;2.80;99.90;;;;;;5020813;28;20037;-77
2022/12/20 08:18:47;;;;;;;16.38;9.48;;;2.80;99.90;;;;;;5024390;28;20132;-79
2022/12/20 08:21:13;;;;;;;19.40;10.40;;;2.80;99.90;;;;;;5026118;28;20034;-79
2022/12/20 08:23:45;;;;;;;18.45;10.38;;;2.90;99.90;;;;;;5017622;28;20482;-79
2022/12/20 08:26:11;;;;;;;22.67;11.77;;;2.90;99.90;;;;;;5020719;28;20018;-77
2022/12/20 08:28:39;;;;;;;20.42;11.73;;;2.90;99.90;;;;;;5011859;28;20038;-78
2022/12/20 08:31:09;;;;;;;22.65;10.50;;;3.00;99.90;;;;;;5019230;28;20386;-77
2022/12/20 08:33:36;;;;;;;19.17;10.55;;;2.90;99.90;;;;;;5018542;28;20072;-78
2022/12/20 08:36:05;;;;;;;20.13;10.80;;;3.00;99.90;;;;;;5020942;28;20077;-77
2022/12/20 08:38:32;;;;;;;22.15;13.02;;;3.00;99.90;;;;;;5019500;28;20057;-77
2022/12/20 08:41:10;;;;;;;23.80;15.10;;;3.10;99.90;;;;;;5018385;28;20026;-78
2022/12/20 08:43:36;;;;;;;24.33;13.80;;;3.10;99.90;;;;;;5017937;28;20033;-78
2022/12/20 08:46:02;;;;;;;25.92;14.80;;;3.10;99.90;;;;;;5015538;28;20022;-76
2022/12/20 08:48:28;;;;;;;27.80;15.15;;;3.20;99.90;;;;;;5014026;28;20390;-78
2022/12/20 08:50:59;;;;;;;26.75;15.25;;;3.20;99.90;;;;;;5013162;28;20980;-77
2022/12/20 08:53:25;;;;;;;36.47;17.40;;;3.20;99.90;;;;;;5010273;28;20030;-77
2022/12/20 08:55:52;;;;;;;25.38;13.95;;;3.20;99.90;;;;;;5007521;28;20030;-77
2022/12/20 08:58:18;;;;;;;22.33;12.82;;;3.20;99.90;;;;;;5012375;28;20163;-77
2022/12/20 09:00:45;;;;;;;23.48;11.88;;;3.30;99.90;;;;;;5015062;28;20026;-78
2022/12/20 09:03:14;;;;;;;24.75;12.23;;;3.30;99.90;;;;;;5017489;28;20021;-77
2022/12/20 09:05:44;;;;;;;17.35;10.05;;;3.30;99.90;;;;;;5016205;28;20030;-77
2022/12/20 09:08:14;;;;;;;18.25;10.70;;;3.30;99.90;;;;;;5015609;28;20659;-77
2022/12/20 09:10:43;;;;;;;20.35;9.35;;;3.40;99.90;;;;;;5015858;28;20109;-78
2022/12/20 09:13:10;;;;;;;20.63;10.13;;;3.40;99.90;;;;;;5017515;28;20096;-77
2022/12/20 09:15:36;;;;;;;20.10;10.30;;;3.40;99.90;;;;;;5011980;28;20113;-79
2022/12/20 09:18:02;;;;;;;22.83;10.23;;;3.40;99.90;;;;;;5016255;28;20026;-78
2022/12/20 09:20:28;;;;;;;17.50;10.27;;;3.40;99.90;;;;;;5020164;28;20483;-78
2022/12/20 09:23:12;;;;;;;17.35;10.05;;;3.40;99.90;;;;;;5012067;28;20035;-79
2022/12/20 09:25:41;;;;;;;19.55;10.07;;;3.50;99.90;;;;;;5016981;28;20026;-78
2022/12/20 09:28:07;;;;;;;17.08;9.80;;;3.50;99.90;;;;;;5012067;28;20038;-79
2022/12/20 09:30:38;;;;;;;16.95;10.27;;;3.50;99.90;;;;;;5015453;28;20026;-79
2022/12/20 09:33:07;;;;;;;15.98;10.15;;;3.50;99.90;;;;;;5010884;28;20064;-80
2022/12/20 09:35:46;;;;;;;14.82;9.40;;;3.50;99.90;;;;;;5015956;28;20094;-78
2022/12/20 09:38:18;;;;;;;16.10;9.70;;;3.60;99.90;;;;;;5014677;28;20038;-79
2022/12/20 09:41:02;;;;;;;16.42;9.40;;;3.60;99.90;;;;;;5015359;28;20037;-78
2022/12/20 09:43:32;;;;;;;19.25;9.98;;;3.60;99.90;;;;;;5011474;28;20084;-79
2022/12/20 09:46:12;;;;;;;14.48;8.57;;;3.70;99.90;;;;;;5012449;28;20120;-79
2022/12/20 09:48:42;;;;;;;19.00;9.40;;;3.80;99.90;;;;;;5015001;28;20030;-78
2022/12/20 09:51:23;;;;;;;15.13;9.75;;;3.90;99.90;;;;;;5009248;28;20022;-78
2022/12/20 09:54:03;;;;;;;24.40;11.48;;;3.90;99.90;;;;;;5011805;28;20037;-80
2022/12/20 09:56:31;;;;;;;17.83;10.77;;;4.00;99.90;;;;;;5013835;28;20029;-80
2022/12/20 09:59:19;;;;;;;16.85;9.77;;;4.10;99.90;;;;;;5010888;28;20033;-80
2022/12/20 10:01:47;;;;;;;19.05;10.20;;;4.20;99.90;;;;;;5012981;28;20110;-78
2022/12/20 10:04:25;;;;;;;20.73;10.68;;;4.20;99.90;;;;;;5010875;28;20447;-80
2022/12/20 10:07:31;;;;;;;16.77;9.82;;;4.30;99.90;;;;;;5010668;28;20459;-80
2022/12/20 10:10:02;;;;;;;15.68;8.70;;;4.30;99.90;;;;;;5013478;28;20048;-78
2022/12/20 10:12:53;;;;;;;12.55;8.13;;;4.30;99.90;;;;;;5025861;28;20026;-78
2022/12/20 10:15:27;;;;;;;13.38;7.80;;;4.40;99.90;;;;;;5010664;28;20050;-80
2022/12/20 10:18:39;;;;;;;19.65;8.68;;;4.40;99.90;;;;;;5012721;28;20018;-78
2022/12/20 10:21:25;;;;;;;20.17;8.65;;;4.40;99.90;;;;;;5014069;28;20037;-78
2022/12/20 10:24:03;;;;;;;15.98;8.57;;;4.50;99.90;;;;;;5015746;28;20026;-77
2022/12/20 10:26:32;;;;;;;14.85;7.97;;;4.50;99.90;;;;;;5018356;23;20046;-77
2022/12/20 10:28:58;;;;;;;14.02;7.72;;;4.50;99.90;;;;;;4989638;28;20105;-77
2022/12/20 10:31:24;;;;;;;14.00;7.45;;;4.50;99.90;;;;;;4987214;28;20110;-77
2022/12/20 10:33:50;;;;;;;14.48;7.32;;;4.60;99.90;;;;;;4992446;28;20065;-77
2022/12/20 10:36:31;;;;;;;17.63;8.82;;;4.50;99.90;;;;;;4990229;28;20037;-77
2022/12/20 10:38:59;;;;;;;16.98;8.32;;;4.50;99.90;;;;;;4990067;28;20029;-78
2022/12/20 10:41:31;;;;;;;18.20;9.25;;;4.50;99.90;;;;;;4989802;28;20102;-77
2022/12/20 10:44:24;;;;;;;16.00;8.98;;;4.50;99.90;;;;;;4990611;28;20030;-77
2022/12/20 10:46:55;;;;;;;24.15;9.77;;;4.40;99.90;;;;;;4988322;28;20030;-78
2022/12/20 10:49:27;;;;;;;17.77;9.93;;;4.40;99.90;;;;;;4989001;28;20030;-78
2022/12/20 10:52:13;;;;;;;14.73;9.02;;;4.40;99.90;;;;;;4993197;28;20018;-78
2022/12/20 10:54:44;;;;;;;20.98;10.27;;;4.40;99.90;;;;;;4992936;28;20479;-77
2022/12/20 10:57:15;;;;;;;17.45;10.35;;;4.40;99.90;;;;;;4986679;28;20038;-78
2022/12/20 11:00:00;;;;;;;17.33;10.48;;;4.40;99.90;;;;;;4988056;28;20025;-77
2022/12/20 11:02:35;;;;;;;14.65;9.73;;;4.40;99.90;;;;;;4987115;28;20448;-77
2022/12/20 11:05:21;;;;;;;15.40;8.27;;;4.40;99.90;;;;;;4989940;28;20109;-77
2022/12/20 11:07:59;;;;;;;19.77;9.70;;;4.40;99.90;;;;;;4985268;28;20041;-78
2022/12/20 11:10:29;;;;;;;17.88;10.25;;;4.30;99.90;;;;;;4993411;28;20027;-78
2022/12/20 11:12:56;;;;;;;18.23;11.27;;;4.30;99.90;;;;;;4987774;28;20117;-78
2022/12/20 11:15:25;;;;;;;23.77;12.02;;;4.40;99.90;;;;;;4989443;28;20026;-78
2022/12/20 11:17:58;;;;;;;19.55;11.13;;;4.30;99.90;;;;;;4984845;28;20077;-81
2022/12/20 11:20:49;;;;;;;26.05;12.65;;;4.30;99.90;;;;;;4993583;28;20101;-79
2022/12/20 11:23:27;;;;;;;20.35;12.05;;;4.30;99.90;;;;;;4984057;28;20073;-77
2022/12/20 11:26:07;;;;;;;23.80;12.38;;;4.30;99.90;;;;;;4984740;28;20026;-77
2022/12/20 11:29:07;;;;;;;20.95;12.25;;;4.30;99.90;;;;;;4987605;28;20042;-77
2022/12/20 11:31:42;;;;;;;22.35;11.45;;;4.30;99.90;;;;;;4986315;28;20018;-77
2022/12/20 11:34:18;;;;;;;22.45;12.32;;;4.30;99.90;;;;;;4987671;28;20073;-77
2022/12/20 11:37:03;;;;;;;19.92;12.13;;;4.30;99.90;;;;;;4982715;28;20026;-77
2022/12/20 11:39:39;;;;;;;24.17;12.90;;;4.30;99.90;;;;;;4983525;28;20057;-78
2022/12/20 11:42:23;;;;;;;27.33;13.65;;;4.30;99.90;;;;;;4989404;28;20026;-78
2022/12/20 11:45:22;;;;;;;24.40;14.70;;;4.40;99.90;;;;;;4983348;28;20034;-79
2022/12/20 11:48:13;;;;;;;21.48;13.50;;;4.40;99.90;;;;;;4965435;28;20041;-79
2022/12/20 11:50:57;;;;;;;27.88;11.75;;;4.40;99.90;;;;;;4979477;28;20030;-80
2022/12/20 11:54:01;;;;;;;;;;;4.40;99.90;;;;;;4970858;28;20032;-78
2022/12/20 11:56:37;;;;;;;22.10;11.25;;;4.40;99.90;;;;;;4963703;28;20499;-79
2022/12/20 11:59:16;;;;;;;22.05;12.25;;;4.50;99.90;;;;;;4945823;28;20034;-78
2022/12/20 12:02:07;;;;;;;18.13;11.02;;;4.60;99.90;;;;;;4972318;28;20035;-78
2022/12/20 12:04:43;;;;;;;20.88;11.90;;;4.60;99.90;;;;;;4979079;28;20418;-79
2022/12/20 12:07:28;;;;;;;23.50;12.35;;;4.60;99.90;;;;;;5003599;28;20472;-78
2022/12/20 12:10:15;;;;;;;19.42;11.18;;;4.60;99.90;;;;;;4983270;28;20088;-78
2022/12/20 12:12:45;;;;;;;22.02;10.80;;;4.70;99.90;;;;;;4987312;28;20144;-78
2022/12/20 12:15:14;;;;;;;22.75;10.75;;;4.70;99.90;;;;;;4984411;28;20126;-79
2022/12/20 12:17:42;;;;;;;20.85;10.98;;;4.70;99.90;;;;;;4981458;28;20078;-79
2022/12/20 12:20:27;;;;;;;27.33;11.77;;;4.70;99.90;;;;;;4985718;28;20419;-78
2022/12/20 12:23:00;;;;;;;19.38;12.18;;;4.70;99.90;;;;;;4987712;28;20022;-81
2022/12/20 12:25:26;;;;;;;19.90;11.40;;;4.70;99.90;;;;;;4980205;28;20030;-79
2022/12/20 12:27:51;;;;;;;20.65;12.27;;;4.70;99.90;;;;;;5000428;28;20047;-79
2022/12/20 12:30:17;;;;;;;24.58;13.07;;;4.70;99.90;;;;;;4984491;28;20065;-79
2022/12/20 12:33:07;;;;;;;32.50;14.88;;;4.70;99.90;;;;;;4987876;28;20103;-79
2022/12/20 12:36:00;;;;;;;21.73;12.93;;;4.80;99.90;;;;;;4990754;28;20046;-79
2022/12/20 12:39:13;;;;;;;23.05;12.65;;;4.90;99.90;;;;;;4988765;28;20078;-79
2022/12/20 12:41:48;;;;;;;18.55;10.95;;;5.00;99.90;;;;;;4949501;28;20432;-79
2022/12/20 12:44:32;;;;;;;23.40;10.93;;;5.00;99.90;;;;;;4989948;28;20045;-79
2022/12/20 12:47:05;;;;;;;20.33;11.35;;;5.00;99.90;;;;;;5009947;28;20054;-78
2022/12/20 12:49:32;;;;;;;21.30;11.95;;;5.10;99.90;;;;;;4989391;28;20026;-78
2022/12/20 12:52:04;;;;;;;18.92;11.10;;;5.00;99.90;;;;;;4989807;28;20061;-79
2022/12/20 12:54:37;;;;;;;19.40;11.18;;;5.10;99.90;;;;;;5022108;28;20113;-78
2022/12/20 12:57:11;;;;;;;22.20;11.00;;;5.10;99.90;;;;;;4992282;28;20054;-80
2022/12/20 12:59:37;;;;;;;22.75;11.23;;;5.10;99.90;;;;;;4981228;28;20117;-79
2022/12/20 13:02:03;;;;;;;20.10;10.68;;;5.00;99.90;;;;;;4989324;28;20109;-79
2022/12/20 13:04:48;;;;;;;16.88;10.80;;;5.00;99.90;;;;;;4991358;28;20046;-79
2022/12/20 13:07:32;;;;;;;19.60;9.85;;;5.00;99.90;;;;;;4988841;28;20034;-79
2022/12/20 13:10:28;;;;;;;15.75;9.68;;;5.00;99.90;;;;;;4988124;28;20039;-79
2022/12/20 13:12:58;;;;;;;23.08;10.15;;;5.00;99.90;;;;;;4987034;28;20045;-79
2022/12/20 13:15:24;;;;;;;14.73;9.70;;;5.00;99.90;;;;;;4980979;28;20067;-80
2022/12/20 13:18:00;;;;;;;21.17;10.25;;;5.00;99.90;;;;;;4984482;28;20430;-80